West Unity, Ohio
Current Conditions -  °F | °C
As of 12:35 PM on Friday 21 Nov 2014 (Local Time) from KUSE Reporting Station
Scattered Clouds Scattered Clouds  
Wind Chill: 16°   Ceiling: Unl
Heat Index: 25°   Visibility: 10mi
Dew Point: 14°   Wind: 8mph
Humidity: 64%   Direction: 260°W
Pressure: 30.48"   Gusts: NA
Location:  41.59°N, 84.43°W
Report Text: KUSE 211735Z AUTO 26007KT 10SM SCT023 M04/M10 A3048 RMK AO2
Loading
Personal Weather Stations






























Interactive Weather Map New forecast layout! Learn more

10-Day Weather Forecast

Advertisements
Track Severe Weather on mobile